sensor_id;sensor_type;location;lat;lon;timestamp;P1;durP1;ratioP1;P2;durP2;ratioP2
36211;SDS011;22247;48.586;13.492;2023-03-22T00:01:54;4.97;;;3.08;;
36211;SDS011;22247;48.586;13.492;2023-03-22T00:04:22;4.63;;;2.95;;
36211;SDS011;22247;48.586;13.492;2023-03-22T00:06:48;5.13;;;3.08;;
36211;SDS011;22247;48.586;13.492;2023-03-22T00:09:14;4.68;;;2.72;;
36211;SDS011;22247;48.586;13.492;2023-03-22T00:11:40;4.07;;;2.72;;
36211;SDS011;22247;48.586;13.492;2023-03-22T00:14:10;5.22;;;3.20;;
36211;SDS011;22247;48.586;13.492;2023-03-22T00:16:36;4.47;;;2.90;;
36211;SDS011;22247;48.586;13.492;2023-03-22T00:19:02;4.30;;;2.85;;
36211;SDS011;22247;48.586;13.492;2023-03-22T00:21:30;8.55;;;3.08;;
36211;SDS011;22247;48.586;13.492;2023-03-22T00:23:58;5.18;;;2.90;;
36211;SDS011;22247;48.586;13.492;2023-03-22T00:26:24;7.47;;;2.97;;
36211;SDS011;22247;48.586;13.492;2023-03-22T00:28:50;5.38;;;3.65;;
36211;SDS011;22247;48.586;13.492;2023-03-22T00:31:16;7.30;;;3.83;;
36211;SDS011;22247;48.586;13.492;2023-03-22T00:33:43;4.97;;;2.63;;
36211;SDS011;22247;48.586;13.492;2023-03-22T00:36:10;7.30;;;2.63;;
36211;SDS011;22247;48.586;13.492;2023-03-22T00:38:38;4.35;;;2.72;;
36211;SDS011;22247;48.586;13.492;2023-03-22T00:43:30;8.88;;;5.15;;
36211;SDS011;22247;48.586;13.492;2023-03-22T00:45:59;8.88;;;4.50;;
36211;SDS011;22247;48.586;13.492;2023-03-22T00:48:27;9.43;;;4.30;;
36211;SDS011;22247;48.586;13.492;2023-03-22T00:50:53;6.90;;;3.70;;
36211;SDS011;22247;48.586;13.492;2023-03-22T00:53:21;9.23;;;4.07;;
36211;SDS011;22247;48.586;13.492;2023-03-22T00:55:50;7.72;;;3.92;;
36211;SDS011;22247;48.586;13.492;2023-03-22T00:58:18;6.53;;;4.75;;
36211;SDS011;22247;48.586;13.492;2023-03-22T01:00:44;6.78;;;3.60;;
36211;SDS011;22247;48.586;13.492;2023-03-22T01:03:10;4.45;;;3.17;;
36211;SDS011;22247;48.586;13.492;2023-03-22T01:05:38;4.53;;;2.92;;
36211;SDS011;22247;48.586;13.492;2023-03-22T01:08:04;5.85;;;3.78;;
36211;SDS011;22247;48.586;13.492;2023-03-22T01:10:33;6.13;;;3.33;;
36211;SDS011;22247;48.586;13.492;2023-03-22T01:13:02;4.93;;;3.10;;
36211;SDS011;22247;48.586;13.492;2023-03-22T01:15:28;5.70;;;3.60;;
36211;SDS011;22247;48.586;13.492;2023-03-22T01:17:54;6.15;;;4.13;;
36211;SDS011;22247;48.586;13.492;2023-03-22T01:20:20;6.18;;;4.88;;
36211;SDS011;22247;48.586;13.492;2023-03-22T01:22:46;5.47;;;3.83;;
36211;SDS011;22247;48.586;13.492;2023-03-22T01:25:15;6.40;;;3.78;;
36211;SDS011;22247;48.586;13.492;2023-03-22T01:27:41;6.63;;;4.00;;
36211;SDS011;22247;48.586;13.492;2023-03-22T01:30:07;8.32;;;3.40;;
36211;SDS011;22247;48.586;13.492;2023-03-22T01:32:35;4.32;;;3.25;;
36211;SDS011;22247;48.586;13.492;2023-03-22T01:35:04;5.18;;;3.60;;
36211;SDS011;22247;48.586;13.492;2023-03-22T01:37:35;8.98;;;3.97;;
36211;SDS011;22247;48.586;13.492;2023-03-22T01:40:01;6.00;;;4.13;;
36211;SDS011;22247;48.586;13.492;2023-03-22T01:42:28;9.68;;;4.30;;
36211;SDS011;22247;48.586;13.492;2023-03-22T01:50:26;8.90;;;3.22;;
36211;SDS011;22247;48.586;13.492;2023-03-22T01:52:52;5.07;;;3.67;;
36211;SDS011;22247;48.586;13.492;2023-03-22T01:55:21;8.77;;;3.95;;
36211;SDS011;22247;48.586;13.492;2023-03-22T01:57:48;4.63;;;4.00;;
36211;SDS011;22247;48.586;13.492;2023-03-22T02:00:17;6.88;;;3.90;;
36211;SDS011;22247;48.586;13.492;2023-03-22T02:02:45;9.02;;;4.13;;
36211;SDS011;22247;48.586;13.492;2023-03-22T02:05:13;7.53;;;4.03;;
36211;SDS011;22247;48.586;13.492;2023-03-22T02:07:39;6.38;;;4.38;;
36211;SDS011;22247;48.586;13.492;2023-03-22T02:10:13;5.88;;;3.40;;
36211;SDS011;22247;48.586;13.492;2023-03-22T02:15:23;7.53;;;4.15;;
36211;SDS011;22247;48.586;13.492;2023-03-22T02:29:46;4.10;;;2.85;;
36211;SDS011;22247;48.586;13.492;2023-03-22T02:34:56;5.97;;;3.17;;
36211;SDS011;22247;48.586;13.492;2023-03-22T02:43:10;4.13;;;3.47;;
36211;SDS011;22247;48.586;13.492;2023-03-22T02:45:44;5.03;;;3.33;;
36211;SDS011;22247;48.586;13.492;2023-03-22T02:48:41;11.25;;;4.03;;
36211;SDS011;22247;48.586;13.492;2023-03-22T02:51:22;8.02;;;3.40;;
36211;SDS011;22247;48.586;13.492;2023-03-22T02:54:04;5.10;;;4.00;;
36211;SDS011;22247;48.586;13.492;2023-03-22T02:56:46;5.90;;;4.03;;
36211;SDS011;22247;48.586;13.492;2023-03-22T02:59:33;5.38;;;3.95;;
36211;SDS011;22247;48.586;13.492;2023-03-22T03:02:02;5.97;;;4.13;;
36211;SDS011;22247;48.586;13.492;2023-03-22T03:04:30;6.35;;;4.50;;
36211;SDS011;22247;48.586;13.492;2023-03-22T03:07:04;6.15;;;3.92;;
36211;SDS011;22247;48.586;13.492;2023-03-22T03:09:39;6.72;;;3.67;;
36211;SDS011;22247;48.586;13.492;2023-03-22T03:12:14;5.97;;;3.75;;
36211;SDS011;22247;48.586;13.492;2023-03-22T03:14:44;6.43;;;3.95;;
36211;SDS011;22247;48.586;13.492;2023-03-22T03:19:44;10.88;;;4.43;;
36211;SDS011;22247;48.586;13.492;2023-03-22T03:22:34;6.07;;;4.10;;
36211;SDS011;22247;48.586;13.492;2023-03-22T03:28:25;8.48;;;5.00;;
36211;SDS011;22247;48.586;13.492;2023-03-22T03:36:35;10.13;;;4.65;;
36211;SDS011;22247;48.586;13.492;2023-03-22T03:39:06;6.53;;;4.43;;
36211;SDS011;22247;48.586;13.492;2023-03-22T03:41:36;7.75;;;5.20;;
36211;SDS011;22247;48.586;13.492;2023-03-22T03:44:02;9.38;;;5.13;;
36211;SDS011;22247;48.586;13.492;2023-03-22T03:46:29;11.68;;;4.75;;
36211;SDS011;22247;48.586;13.492;2023-03-22T03:48:58;7.18;;;5.38;;
36211;SDS011;22247;48.586;13.492;2023-03-22T03:51:24;7.32;;;5.30;;
36211;SDS011;22247;48.586;13.492;2023-03-22T03:53:51;5.85;;;4.80;;
36211;SDS011;22247;48.586;13.492;2023-03-22T03:56:17;8.65;;;4.40;;
36211;SDS011;22247;48.586;13.492;2023-03-22T03:58:45;9.10;;;4.80;;
36211;SDS011;22247;48.586;13.492;2023-03-22T04:01:15;6.63;;;3.67;;
36211;SDS011;22247;48.586;13.492;2023-03-22T04:03:43;5.32;;;3.88;;
36211;SDS011;22247;48.586;13.492;2023-03-22T04:06:10;7.75;;;4.72;;
36211;SDS011;22247;48.586;13.492;2023-03-22T04:08:36;9.50;;;4.18;;
36211;SDS011;22247;48.586;13.492;2023-03-22T04:11:02;5.95;;;3.80;;
36211;SDS011;22247;48.586;13.492;2023-03-22T04:13:28;8.13;;;5.13;;
36211;SDS011;22247;48.586;13.492;2023-03-22T04:15:54;7.25;;;4.63;;
36211;SDS011;22247;48.586;13.492;2023-03-22T04:18:22;6.38;;;4.25;;
36211;SDS011;22247;48.586;13.492;2023-03-22T04:20:53;6.50;;;4.07;;
36211;SDS011;22247;48.586;13.492;2023-03-22T04:23:22;5.35;;;3.60;;
36211;SDS011;22247;48.586;13.492;2023-03-22T04:25:49;5.15;;;3.92;;
36211;SDS011;22247;48.586;13.492;2023-03-22T04:28:15;6.07;;;3.58;;
36211;SDS011;22247;48.586;13.492;2023-03-22T04:30:44;7.07;;;4.13;;
36211;SDS011;22247;48.586;13.492;2023-03-22T04:33:10;6.15;;;3.33;;
36211;SDS011;22247;48.586;13.492;2023-03-22T04:35:36;5.75;;;4.32;;
36211;SDS011;22247;48.586;13.492;2023-03-22T04:38:02;7.05;;;4.43;;
36211;SDS011;22247;48.586;13.492;2023-03-22T04:40:28;5.13;;;3.88;;
36211;SDS011;22247;48.586;13.492;2023-03-22T04:42:59;5.57;;;3.80;;
36211;SDS011;22247;48.586;13.492;2023-03-22T04:45:30;6.65;;;4.05;;
36211;SDS011;22247;48.586;13.492;2023-03-22T04:47:56;5.18;;;4.05;;
36211;SDS011;22247;48.586;13.492;2023-03-22T04:50:24;6.28;;;3.75;;
36211;SDS011;22247;48.586;13.492;2023-03-22T04:52:52;5.65;;;3.78;;
36211;SDS011;22247;48.586;13.492;2023-03-22T04:55:18;5.30;;;3.22;;
36211;SDS011;22247;48.586;13.492;2023-03-22T04:57:44;5.68;;;3.05;;
36211;SDS011;22247;48.586;13.492;2023-03-22T05:00:10;6.28;;;3.45;;
36211;SDS011;22247;48.586;13.492;2023-03-22T05:02:38;5.50;;;3.03;;
36211;SDS011;22247;48.586;13.492;2023-03-22T05:05:05;5.53;;;3.40;;
36211;SDS011;22247;48.586;13.492;2023-03-22T05:07:31;6.97;;;2.75;;
36211;SDS011;22247;48.586;13.492;2023-03-22T05:09:57;6.20;;;3.35;;
36211;SDS011;22247;48.586;13.492;2023-03-22T05:12:23;5.40;;;3.67;;
36211;SDS011;22247;48.586;13.492;2023-03-22T05:14:49;7.25;;;3.40;;
36211;SDS011;22247;48.586;13.492;2023-03-22T05:17:20;5.28;;;3.33;;
36211;SDS011;22247;48.586;13.492;2023-03-22T05:19:45;6.20;;;3.75;;
36211;SDS011;22247;48.586;13.492;2023-03-22T05:22:11;4.65;;;3.33;;
36211;SDS011;22247;48.586;13.492;2023-03-22T05:24:40;6.95;;;3.05;;
36211;SDS011;22247;48.586;13.492;2023-03-22T05:27:08;5.60;;;3.47;;
36211;SDS011;22247;48.586;13.492;2023-03-22T05:29:38;11.50;;;4.10;;
36211;SDS011;22247;48.586;13.492;2023-03-22T05:32:11;6.93;;;3.60;;
36211;SDS011;22247;48.586;13.492;2023-03-22T05:34:36;4.55;;;3.78;;
36211;SDS011;22247;48.586;13.492;2023-03-22T05:37:06;6.32;;;3.33;;
36211;SDS011;22247;48.586;13.492;2023-03-22T05:39:31;5.40;;;2.95;;
36211;SDS011;22247;48.586;13.492;2023-03-22T05:41:59;5.07;;;3.42;;
36211;SDS011;22247;48.586;13.492;2023-03-22T05:44:25;6.82;;;3.60;;
36211;SDS011;22247;48.586;13.492;2023-03-22T05:46:51;6.13;;;3.90;;
36211;SDS011;22247;48.586;13.492;2023-03-22T05:49:17;6.63;;;3.88;;
36211;SDS011;22247;48.586;13.492;2023-03-22T05:51:43;4.70;;;3.63;;
36211;SDS011;22247;48.586;13.492;2023-03-22T05:54:09;6.75;;;4.18;;
36211;SDS011;22247;48.586;13.492;2023-03-22T05:56:38;6.50;;;4.10;;
36211;SDS011;22247;48.586;13.492;2023-03-22T05:59:04;7.70;;;3.60;;
36211;SDS011;22247;48.586;13.492;2023-03-22T06:01:30;7.60;;;4.30;;
36211;SDS011;22247;48.586;13.492;2023-03-22T06:03:57;5.20;;;3.42;;
36211;SDS011;22247;48.586;13.492;2023-03-22T06:06:23;5.10;;;3.15;;
36211;SDS011;22247;48.586;13.492;2023-03-22T06:08:52;8.45;;;4.07;;
36211;SDS011;22247;48.586;13.492;2023-03-22T06:11:20;8.25;;;3.50;;
36211;SDS011;22247;48.586;13.492;2023-03-22T06:13:46;5.03;;;3.13;;
36211;SDS011;22247;48.586;13.492;2023-03-22T06:16:12;9.75;;;5.13;;
36211;SDS011;22247;48.586;13.492;2023-03-22T06:18:39;6.28;;;3.88;;
36211;SDS011;22247;48.586;13.492;2023-03-22T06:21:05;7.13;;;3.72;;
36211;SDS011;22247;48.586;13.492;2023-03-22T06:23:31;6.20;;;3.70;;
36211;SDS011;22247;48.586;13.492;2023-03-22T06:25:59;5.18;;;3.70;;
36211;SDS011;22247;48.586;13.492;2023-03-22T06:28:27;4.32;;;3.42;;
36211;SDS011;22247;48.586;13.492;2023-03-22T06:30:54;4.22;;;2.58;;
36211;SDS011;22247;48.586;13.492;2023-03-22T06:33:20;3.97;;;2.55;;
36211;SDS011;22247;48.586;13.492;2023-03-22T06:35:46;3.92;;;2.72;;
36211;SDS011;22247;48.586;13.492;2023-03-22T06:38:12;3.40;;;2.92;;
36211;SDS011;22247;48.586;13.492;2023-03-22T06:40:40;5.38;;;2.75;;
36211;SDS011;22247;48.586;13.492;2023-03-22T06:43:06;4.90;;;3.28;;
36211;SDS011;22247;48.586;13.492;2023-03-22T06:45:34;7.25;;;3.60;;
36211;SDS011;22247;48.586;13.492;2023-03-22T06:48:00;5.85;;;3.35;;
36211;SDS011;22247;48.586;13.492;2023-03-22T06:50:28;9.27;;;3.20;;
36211;SDS011;22247;48.586;13.492;2023-03-22T06:52:54;5.90;;;3.42;;
36211;SDS011;22247;48.586;13.492;2023-03-22T06:55:20;3.70;;;2.92;;
36211;SDS011;22247;48.586;13.492;2023-03-22T06:57:46;3.55;;;2.75;;
36211;SDS011;22247;48.586;13.492;2023-03-22T07:00:12;6.20;;;2.85;;
36211;SDS011;22247;48.586;13.492;2023-03-22T07:02:39;7.38;;;3.05;;
36211;SDS011;22247;48.586;13.492;2023-03-22T07:05:06;7.22;;;3.85;;
36211;SDS011;22247;48.586;13.492;2023-03-22T07:07:34;4.50;;;2.92;;
36211;SDS011;22247;48.586;13.492;2023-03-22T07:10:03;12.55;;;3.88;;
36211;SDS011;22247;48.586;13.492;2023-03-22T07:12:29;8.10;;;3.33;;
36211;SDS011;22247;48.586;13.492;2023-03-22T07:14:55;10.35;;;3.22;;
36211;SDS011;22247;48.586;13.492;2023-03-22T07:17:23;6.80;;;3.22;;
36211;SDS011;22247;48.586;13.492;2023-03-22T07:19:51;4.55;;;3.28;;
36211;SDS011;22247;48.586;13.492;2023-03-22T07:22:18;5.47;;;2.63;;
36211;SDS011;22247;48.586;13.492;2023-03-22T07:24:51;8.93;;;2.97;;
36211;SDS011;22247;48.586;13.492;2023-03-22T07:27:19;8.48;;;2.75;;
36211;SDS011;22247;48.586;13.492;2023-03-22T07:29:50;8.73;;;2.35;;
36211;SDS011;22247;48.586;13.492;2023-03-22T07:32:18;6.35;;;2.28;;
36211;SDS011;22247;48.586;13.492;2023-03-22T07:34:44;5.15;;;2.45;;
36211;SDS011;22247;48.586;13.492;2023-03-22T07:37:10;3.97;;;2.78;;
36211;SDS011;22247;48.586;13.492;2023-03-22T07:39:36;3.85;;;2.72;;
36211;SDS011;22247;48.586;13.492;2023-03-22T07:42:04;8.65;;;2.78;;
36211;SDS011;22247;48.586;13.492;2023-03-22T07:44:32;3.88;;;2.50;;
36211;SDS011;22247;48.586;13.492;2023-03-22T07:46:58;3.92;;;2.85;;
36211;SDS011;22247;48.586;13.492;2023-03-22T07:49:24;5.45;;;3.53;;
36211;SDS011;22247;48.586;13.492;2023-03-22T07:51:51;3.95;;;2.63;;
36211;SDS011;22247;48.586;13.492;2023-03-22T07:54:17;7.15;;;2.38;;
36211;SDS011;22247;48.586;13.492;2023-03-22T07:56:43;7.13;;;3.28;;
36211;SDS011;22247;48.586;13.492;2023-03-22T07:59:12;6.00;;;2.40;;
36211;SDS011;22247;48.586;13.492;2023-03-22T08:01:38;7.07;;;2.85;;
36211;SDS011;22247;48.586;13.492;2023-03-22T08:04:04;4.57;;;3.05;;
36211;SDS011;22247;48.586;13.492;2023-03-22T08:06:30;4.38;;;2.72;;
36211;SDS011;22247;48.586;13.492;2023-03-22T08:08:57;5.25;;;2.92;;
36211;SDS011;22247;48.586;13.492;2023-03-22T08:11:23;7.72;;;2.78;;
36211;SDS011;22247;48.586;13.492;2023-03-22T08:13:51;4.13;;;2.97;;
36211;SDS011;22247;48.586;13.492;2023-03-22T08:16:18;5.07;;;2.70;;
36211;SDS011;22247;48.586;13.492;2023-03-22T08:18:44;5.30;;;2.72;;
36211;SDS011;22247;48.586;13.492;2023-03-22T08:21:13;3.80;;;2.50;;
36211;SDS011;22247;48.586;13.492;2023-03-22T08:23:39;7.00;;;3.45;;
36211;SDS011;22247;48.586;13.492;2023-03-22T08:26:08;6.25;;;2.88;;
36211;SDS011;22247;48.586;13.492;2023-03-22T08:28:34;4.40;;;3.10;;
36211;SDS011;22247;48.586;13.492;2023-03-22T08:31:01;8.70;;;3.80;;
36211;SDS011;22247;48.586;13.492;2023-03-22T08:33:33;5.82;;;4.00;;
36211;SDS011;22247;48.586;13.492;2023-03-22T08:36:03;5.95;;;3.40;;
36211;SDS011;22247;48.586;13.492;2023-03-22T08:38:33;4.57;;;3.60;;
36211;SDS011;22247;48.586;13.492;2023-03-22T08:40:59;5.22;;;3.65;;
36211;SDS011;22247;48.586;13.492;2023-03-22T08:43:25;6.07;;;3.78;;
36211;SDS011;22247;48.586;13.492;2023-03-22T08:45:51;5.22;;;3.72;;
36211;SDS011;22247;48.586;13.492;2023-03-22T08:48:17;6.97;;;2.92;;
36211;SDS011;22247;48.586;13.492;2023-03-22T08:50:43;4.88;;;3.15;;
36211;SDS011;22247;48.586;13.492;2023-03-22T08:53:09;5.78;;;2.92;;
36211;SDS011;22247;48.586;13.492;2023-03-22T08:55:36;6.70;;;3.75;;
36211;SDS011;22247;48.586;13.492;2023-03-22T08:58:03;7.22;;;3.45;;
36211;SDS011;22247;48.586;13.492;2023-03-22T09:00:29;5.53;;;3.70;;
36211;SDS011;22247;48.586;13.492;2023-03-22T09:02:55;7.10;;;3.17;;
36211;SDS011;22247;48.586;13.492;2023-03-22T09:05:21;3.88;;;3.08;;
36211;SDS011;22247;48.586;13.492;2023-03-22T09:07:51;3.65;;;2.75;;
36211;SDS011;22247;48.586;13.492;2023-03-22T09:10:16;5.32;;;2.92;;
36211;SDS011;22247;48.586;13.492;2023-03-22T09:12:42;4.13;;;3.03;;
36211;SDS011;22247;48.586;13.492;2023-03-22T09:15:09;4.30;;;2.92;;
36211;SDS011;22247;48.586;13.492;2023-03-22T09:17:35;5.43;;;3.08;;
36211;SDS011;22247;48.586;13.492;2023-03-22T09:20:03;4.88;;;2.95;;
36211;SDS011;22247;48.586;13.492;2023-03-22T09:22:32;4.50;;;2.85;;
36211;SDS011;22247;48.586;13.492;2023-03-22T09:24:58;6.03;;;3.75;;
36211;SDS011;22247;48.586;13.492;2023-03-22T09:27:24;4.25;;;3.33;;
36211;SDS011;22247;48.586;13.492;2023-03-22T09:29:51;7.28;;;2.90;;
36211;SDS011;22247;48.586;13.492;2023-03-22T09:32:19;5.30;;;3.33;;
36211;SDS011;22247;48.586;13.492;2023-03-22T09:34:45;5.90;;;2.78;;
36211;SDS011;22247;48.586;13.492;2023-03-22T09:37:13;4.05;;;2.72;;
36211;SDS011;22247;48.586;13.492;2023-03-22T09:39:39;6.03;;;3.08;;
36211;SDS011;22247;48.586;13.492;2023-03-22T09:42:51;3.97;;;2.47;;
36211;SDS011;22247;48.586;13.492;2023-03-22T09:45:03;5.13;;;3.55;;
36211;SDS011;22247;48.586;13.492;2023-03-22T09:47:34;3.63;;;3.33;;
36211;SDS011;22247;48.586;13.492;2023-03-22T09:50:11;3.20;;;2.90;;
36211;SDS011;22247;48.586;13.492;2023-03-22T09:52:45;3.40;;;2.80;;
36211;SDS011;22247;48.586;13.492;2023-03-22T10:01:23;3.13;;;2.55;;
36211;SDS011;22247;48.586;13.492;2023-03-22T10:06:17;6.95;;;2.67;;
36211;SDS011;22247;48.586;13.492;2023-03-22T10:08:56;5.05;;;2.67;;
36211;SDS011;22247;48.586;13.492;2023-03-22T10:14:40;4.50;;;2.92;;
36211;SDS011;22247;48.586;13.492;2023-03-22T10:17:12;3.83;;;2.70;;
36211;SDS011;22247;48.586;13.492;2023-03-22T10:22:32;3.72;;;2.78;;
36211;SDS011;22247;48.586;13.492;2023-03-22T10:25:05;3.00;;;2.28;;
36211;SDS011;22247;48.586;13.492;2023-03-22T10:27:32;3.97;;;1.90;;
36211;SDS011;22247;48.586;13.492;2023-03-22T10:30:11;6.93;;;2.70;;
36211;SDS011;22247;48.586;13.492;2023-03-22T10:32:59;6.47;;;2.78;;
36211;SDS011;22247;48.586;13.492;2023-03-22T10:37:53;3.70;;;1.70;;
36211;SDS011;22247;48.586;13.492;2023-03-22T10:40:28;5.00;;;2.05;;
36211;SDS011;22247;48.586;13.492;2023-03-22T10:43:19;4.10;;;2.42;;
36211;SDS011;22247;48.586;13.492;2023-03-22T10:45:56;5.10;;;2.38;;
36211;SDS011;22247;48.586;13.492;2023-03-22T10:48:26;5.30;;;2.80;;
36211;SDS011;22247;48.586;13.492;2023-03-22T10:50:53;2.88;;;2.42;;
36211;SDS011;22247;48.586;13.492;2023-03-22T10:53:53;5.28;;;2.47;;
36211;SDS011;22247;48.586;13.492;2023-03-22T10:56:14;4.38;;;3.10;;
36211;SDS011;22247;48.586;13.492;2023-03-22T10:58:44;2.40;;;2.15;;
36211;SDS011;22247;48.586;13.492;2023-03-22T11:01:12;4.07;;;2.22;;
36211;SDS011;22247;48.586;13.492;2023-03-22T11:11:20;3.20;;;2.15;;
36211;SDS011;22247;48.586;13.492;2023-03-22T11:13:55;4.30;;;2.30;;
36211;SDS011;22247;48.586;13.492;2023-03-22T11:16:28;3.13;;;2.25;;
36211;SDS011;22247;48.586;13.492;2023-03-22T11:18:56;3.70;;;2.60;;
36211;SDS011;22247;48.586;13.492;2023-03-22T11:21:27;5.75;;;2.65;;
36211;SDS011;22247;48.586;13.492;2023-03-22T11:23:58;4.68;;;1.90;;
36211;SDS011;22247;48.586;13.492;2023-03-22T11:26:32;3.77;;;1.73;;
36211;SDS011;22247;48.586;13.492;2023-03-22T11:34:27;2.03;;;1.35;;
36211;SDS011;22247;48.586;13.492;2023-03-22T11:36:58;3.15;;;1.40;;
36211;SDS011;22247;48.586;13.492;2023-03-22T11:39:27;4.93;;;1.40;;
36211;SDS011;22247;48.586;13.492;2023-03-22T11:41:57;4.60;;;1.88;;
36211;SDS011;22247;48.586;13.492;2023-03-22T11:44:26;4.07;;;1.98;;
36211;SDS011;22247;48.586;13.492;2023-03-22T11:46:56;3.95;;;2.28;;
36211;SDS011;22247;48.586;13.492;2023-03-22T11:49:34;8.48;;;1.60;;
36211;SDS011;22247;48.586;13.492;2023-03-22T11:52:13;1.30;;;0.90;;
36211;SDS011;22247;48.586;13.492;2023-03-22T11:57:12;2.53;;;1.48;;
36211;SDS011;22247;48.586;13.492;2023-03-22T12:00:15;2.85;;;1.50;;
36211;SDS011;22247;48.586;13.492;2023-03-22T12:05:33;2.17;;;1.10;;
36211;SDS011;22247;48.586;13.492;2023-03-22T12:08:14;2.08;;;1.17;;
36211;SDS011;22247;48.586;13.492;2023-03-22T12:10:53;4.63;;;0.98;;
36211;SDS011;22247;48.586;13.492;2023-03-22T12:13:27;2.55;;;1.50;;
36211;SDS011;22247;48.586;13.492;2023-03-22T12:16:14;2.28;;;0.90;;
36211;SDS011;22247;48.586;13.492;2023-03-22T12:18:47;3.15;;;1.00;;
36211;SDS011;22247;48.586;13.492;2023-03-22T12:21:22;2.75;;;1.13;;
36211;SDS011;22247;48.586;13.492;2023-03-22T12:23:48;2.33;;;1.27;;
36211;SDS011;22247;48.586;13.492;2023-03-22T12:26:14;1.55;;;1.10;;
36211;SDS011;22247;48.586;13.492;2023-03-22T12:31:17;1.50;;;1.17;;
36211;SDS011;22247;48.586;13.492;2023-03-22T12:33:49;1.35;;;1.00;;
36211;SDS011;22247;48.586;13.492;2023-03-22T12:36:17;2.92;;;1.33;;
36211;SDS011;22247;48.586;13.492;2023-03-22T12:38:51;3.83;;;1.30;;
36211;SDS011;22247;48.586;13.492;2023-03-22T12:41:30;2.13;;;1.13;;
36211;SDS011;22247;48.586;13.492;2023-03-22T12:47:03;2.35;;;1.20;;
36211;SDS011;22247;48.586;13.492;2023-03-22T12:52:41;2.30;;;1.20;;
36211;SDS011;22247;48.586;13.492;2023-03-22T12:55:17;2.60;;;1.20;;
36211;SDS011;22247;48.586;13.492;2023-03-22T12:57:47;1.70;;;1.02;;
36211;SDS011;22247;48.586;13.492;2023-03-22T13:00:18;1.40;;;1.05;;
36211;SDS011;22247;48.586;13.492;2023-03-22T13:05:57;3.17;;;1.00;;
36211;SDS011;22247;48.586;13.492;2023-03-22T13:09:00;2.63;;;1.20;;
36211;SDS011;22247;48.586;13.492;2023-03-22T13:11:25;2.05;;;0.95;;
36211;SDS011;22247;48.586;13.492;2023-03-22T13:13:51;2.83;;;1.13;;
36211;SDS011;22247;48.586;13.492;2023-03-22T13:16:18;2.00;;;0.88;;
36211;SDS011;22247;48.586;13.492;2023-03-22T13:21:15;1.30;;;0.65;;
36211;SDS011;22247;48.586;13.492;2023-03-22T13:26:43;2.40;;;0.95;;
36211;SDS011;22247;48.586;13.492;2023-03-22T13:34:16;4.28;;;0.80;;
36211;SDS011;22247;48.586;13.492;2023-03-22T13:36:47;1.95;;;0.77;;
36211;SDS011;22247;48.586;13.492;2023-03-22T13:41:41;1.15;;;0.50;;
36211;SDS011;22247;48.586;13.492;2023-03-22T13:44:46;1.25;;;0.60;;
36211;SDS011;22247;48.586;13.492;2023-03-22T13:47:27;3.10;;;0.80;;
36211;SDS011;22247;48.586;13.492;2023-03-22T13:49:56;1.67;;;0.75;;
36211;SDS011;22247;48.586;13.492;2023-03-22T13:52:39;2.22;;;0.60;;
36211;SDS011;22247;48.586;13.492;2023-03-22T13:58:09;1.90;;;0.70;;
36211;SDS011;22247;48.586;13.492;2023-03-22T14:01:02;1.92;;;0.60;;
36211;SDS011;22247;48.586;13.492;2023-03-22T14:03:35;1.30;;;0.60;;
36211;SDS011;22247;48.586;13.492;2023-03-22T14:06:10;1.20;;;0.60;;
36211;SDS011;22247;48.586;13.492;2023-03-22T14:08:47;1.08;;;0.47;;
36211;SDS011;22247;48.586;13.492;2023-03-22T14:13:48;3.05;;;0.60;;
36211;SDS011;22247;48.586;13.492;2023-03-22T14:16:17;1.45;;;0.50;;
36211;SDS011;22247;48.586;13.492;2023-03-22T14:18:53;1.60;;;0.57;;
36211;SDS011;22247;48.586;13.492;2023-03-22T14:21:24;1.58;;;0.77;;
36211;SDS011;22247;48.586;13.492;2023-03-22T14:24:02;6.43;;;0.60;;
36211;SDS011;22247;48.586;13.492;2023-03-22T14:26:31;1.25;;;0.68;;
36211;SDS011;22247;48.586;13.492;2023-03-22T14:29:06;0.75;;;0.40;;
36211;SDS011;22247;48.586;13.492;2023-03-22T14:34:17;1.38;;;0.65;;
36211;SDS011;22247;48.586;13.492;2023-03-22T14:36:44;2.53;;;0.40;;
36211;SDS011;22247;48.586;13.492;2023-03-22T14:39:26;1.40;;;0.52;;
36211;SDS011;22247;48.586;13.492;2023-03-22T14:42:02;1.90;;;0.50;;
36211;SDS011;22247;48.586;13.492;2023-03-22T14:44:39;1.98;;;0.60;;
36211;SDS011;22247;48.586;13.492;2023-03-22T14:49:41;0.90;;;0.43;;
36211;SDS011;22247;48.586;13.492;2023-03-22T14:52:11;2.13;;;0.50;;
36211;SDS011;22247;48.586;13.492;2023-03-22T14:54:47;3.33;;;0.40;;
36211;SDS011;22247;48.586;13.492;2023-03-22T14:57:15;0.77;;;0.47;;
36211;SDS011;22247;48.586;13.492;2023-03-22T14:59:42;1.45;;;0.60;;
36211;SDS011;22247;48.586;13.492;2023-03-22T15:02:18;1.45;;;0.63;;
36211;SDS011;22247;48.586;13.492;2023-03-22T15:05:12;0.70;;;0.43;;
36211;SDS011;22247;48.586;13.492;2023-03-22T15:07:45;0.98;;;0.57;;
36211;SDS011;22247;48.586;13.492;2023-03-22T15:10:14;1.05;;;0.70;;
36211;SDS011;22247;48.586;13.492;2023-03-22T15:12:42;2.95;;;0.60;;
36211;SDS011;22247;48.586;13.492;2023-03-22T15:15:11;2.47;;;0.50;;
36211;SDS011;22247;48.586;13.492;2023-03-22T15:17:37;1.55;;;0.60;;
36211;SDS011;22247;48.586;13.492;2023-03-22T15:20:04;2.15;;;0.50;;
36211;SDS011;22247;48.586;13.492;2023-03-22T15:22:31;2.65;;;1.25;;
36211;SDS011;22247;48.586;13.492;2023-03-22T15:25:00;1.88;;;0.60;;
36211;SDS011;22247;48.586;13.492;2023-03-22T15:27:27;0.70;;;0.50;;
36211;SDS011;22247;48.586;13.492;2023-03-22T15:29:55;2.17;;;0.60;;
36211;SDS011;22247;48.586;13.492;2023-03-22T15:32:22;1.05;;;0.40;;
36211;SDS011;22247;48.586;13.492;2023-03-22T15:34:49;0.80;;;0.40;;
36211;SDS011;22247;48.586;13.492;2023-03-22T15:37:33;1.10;;;0.50;;
36211;SDS011;22247;48.586;13.492;2023-03-22T15:40:02;0.98;;;0.57;;
36211;SDS011;22247;48.586;13.492;2023-03-22T15:42:36;1.70;;;0.40;;
36211;SDS011;22247;48.586;13.492;2023-03-22T15:50:22;3.50;;;0.50;;
36211;SDS011;22247;48.586;13.492;2023-03-22T15:52:49;1.90;;;0.50;;
36211;SDS011;22247;48.586;13.492;2023-03-22T15:55:17;2.70;;;0.47;;
36211;SDS011;22247;48.586;13.492;2023-03-22T15:58:02;1.00;;;0.40;;
36211;SDS011;22247;48.586;13.492;2023-03-22T16:00:36;1.85;;;0.60;;
36211;SDS011;22247;48.586;13.492;2023-03-22T16:05:33;0.80;;;0.50;;
36211;SDS011;22247;48.586;13.492;2023-03-22T16:08:00;0.85;;;0.40;;
36211;SDS011;22247;48.586;13.492;2023-03-22T16:10:28;3.60;;;0.50;;
36211;SDS011;22247;48.586;13.492;2023-03-22T16:12:54;1.30;;;0.50;;
36211;SDS011;22247;48.586;13.492;2023-03-22T16:15:38;3.70;;;0.65;;
36211;SDS011;22247;48.586;13.492;2023-03-22T16:18:04;1.48;;;0.40;;
36211;SDS011;22247;48.586;13.492;2023-03-22T16:20:33;1.67;;;0.60;;
36211;SDS011;22247;48.586;13.492;2023-03-22T16:22:59;3.90;;;0.45;;
36211;SDS011;22247;48.586;13.492;2023-03-22T16:25:25;1.48;;;0.40;;
36211;SDS011;22247;48.586;13.492;2023-03-22T16:27:51;0.90;;;0.30;;
36211;SDS011;22247;48.586;13.492;2023-03-22T16:30:17;2.72;;;0.50;;
36211;SDS011;22247;48.586;13.492;2023-03-22T16:32:44;1.30;;;0.60;;
36211;SDS011;22247;48.586;13.492;2023-03-22T16:35:15;4.40;;;0.43;;
36211;SDS011;22247;48.586;13.492;2023-03-22T16:37:46;5.05;;;0.77;;
36211;SDS011;22247;48.586;13.492;2023-03-22T16:40:16;2.70;;;0.80;;
36211;SDS011;22247;48.586;13.492;2023-03-22T16:42:44;2.47;;;0.73;;
36211;SDS011;22247;48.586;13.492;2023-03-22T16:45:11;1.50;;;0.50;;
36211;SDS011;22247;48.586;13.492;2023-03-22T16:47:46;0.98;;;0.45;;
36211;SDS011;22247;48.586;13.492;2023-03-22T16:50:13;3.10;;;0.40;;